Keisuke Kawashima

Scout - Kashima Antlers
3 Feb 2028
Donnerstag
Verarbeitung

Persönlichkeit

Anpassungsfähigkeit (11) Ehrgeiz (2) Kontroverse (12) Loyalität (12) Druck (8) Professionalität (9) Fairness (8) Temperament (8)

Profil

Trainerstil Demokratisch
Lizenz Kontinentale A
Entschlossenheit 11
Menschenführung 10
Motivation 4
Disziplin 6
Arbeitszufriedenheit
100%
Ermüdung
0%
Rolle Scout
Gehalt 52.6K p/W
Vertrag 14.03.2029

Leistung

Verhalten Gut
Trainingseffektivität
46%
Spielerentwicklung
35%
Verletzungsprävention
50%
Taktische Umsetzung
45%

Letzte Ereignisse

Nahm an einer Scouting-Besprechung teil jetzt
Nahm an einer Scouting-Besprechung teil 7T her
Empfahl ein Transferziel 7T her
Empfahl ein Transferziel 7T her
Legte dem Vorstand ein Dossier vor 7T her
Nimmt an Fortbildung teil 14T her
Nimmt an Fortbildung teil 14T her
Nimmt an Fortbildung teil 14T her

Aktuell beobachtet

218
Spieler Verein Status Fähigkeit Vertrauen Beobachtet Zuletzt beobachtet Letzte Stimme
Ryuya Nishio Omiya Ardija Bericht bereit 128 / 130 76% 1 31.01.2028 -
Yusuke Segawa Kashiwa Reysol Aktiv 130 / 120 76% 1 24.01.2028 Befürworten
Hijiri Kato Omiya Ardija Verloren 120 / 126 76% 1 17.01.2028 Befürworten
Yota Komi Kashiwa Reysol Aktiv 124 / 121 76% 1 06.01.2028 Befürworten
Tobías Leiva Estudiantes Aktiv 110 / 120 40% 2 04.01.2028 -
Nicolás Kozlovsky Oriental Aktiv 116 / 106 40% 1 04.01.2028 -
Abdukodir Khusanov Coventry City Aktiv 161 / 152 40% 1 04.01.2028 -
Valentín Serrano Arsenal Aktiv 111 / 111 40% 3 03.01.2028 -
Rodrigo Chagas Juventud Aktiv 119 / 114 40% 2 03.01.2028 -
Brooke Norton-Cuffy Inter Miami CF Aktiv 140 / 143 40% 3 03.01.2028 -
Fredrik Sjøvold Bodo/Glimt Aktiv 139 / 128 40% 1 03.01.2028 -
Matheus Bidu Corinthians Aktiv 135 / 124 40% 1 03.01.2028 -
Lucas Carrizo Newell's Old Boys Aktiv 128 / 121 40% 1 03.01.2028 -
Joe Gelhardt Hull City Aktiv 134 / 134 40% 2 01.01.2028 -
Jorge De Frutos Rayo Vallecano Aktiv 156 / 157 40% 2 30.12.2027 -
Ruben van Bommel Ferencvaros Aktiv 144 / 144 40% 2 30.12.2027 -
Karim Konaté Red Bull Salzburg Aktiv 146 / 144 40% 1 30.12.2027 -
Dion Beljo Standard Liege Aktiv 133 / 130 40% 1 29.12.2027 -
Juan Brunetta FC Copenhagen Aktiv 153 / 133 40% 1 29.12.2027 -
Breno Bidon Corinthians Aktiv 125 / 136 40% 2 28.12.2027 -
Emerson Royal Flamengo Aktiv 134 / 140 40% 2 28.12.2027 -
Franco Ibarra Rosario Central Aktiv 132 / 127 40% 1 28.12.2027 -
Anton Stach Leeds United Aktiv 148 / 147 40% 1 27.12.2027 -
Mateo Castillo Millonarios Aktiv 127 / 124 40% 1 27.12.2027 -
José Hurtado Bragantino Aktiv 132 / 128 40% 1 27.12.2027 -
Yassir Zabiri Stade Rennais Aktiv 142 / 140 40% 1 25.12.2027 -
Maroan Sannadi Athletic Bilbao Aktiv 134 / 149 40% 1 25.12.2027 -
Santiago González Tigre Aktiv 134 / 131 40% 3 24.12.2027 -
Ayrton Costa Boca Juniors Aktiv 133 / 128 40% 1 24.12.2027 -
Alejo Veliz Bahia Aktiv 140 / 141 40% 2 22.12.2027 -
Sebastiano Esposito Cagliari Aktiv 145 / 136 40% 1 22.12.2027 -
Asahi Sasaki Kawasaki Frontale Aktiv 137 / 128 40% 2 21.12.2027 -
Hércules Fluminense Aktiv 127 / 132 40% 1 21.12.2027 -
Bamba Dieng Crvena Zvezda Aktiv 132 / 137 40% 1 21.12.2027 -
Nikola Krstović Sassuolo Aktiv 151 / 150 40% 1 21.12.2027 -
Jonathan Dubasin Osasuna Aktiv 149 / 150 40% 2 20.12.2027 -
Fábio Carvalho Sheffield Wednesday Aktiv 151 / 149 40% 1 20.12.2027 -
Noah Okafor Leeds United Aktiv 139 / 151 40% 1 20.12.2027 -
Mateo Mendoza Godoy Cruz Aktiv 124 / 130 40% 6 19.12.2027 -
Francisco Facello Chacarita Juniors Aktiv 109 / 110 40% 4 19.12.2027 -
Sere Matsumura Shonan Bellmare Aktiv 121 / 112 40% 3 19.12.2027 -
Riku Yamane Yokohama F. Marinos Aktiv 137 / 137 40% 4 18.12.2027 -
Williams Manyama SuperSport United Aktiv 117 / 124 40% 3 17.12.2027 -
Mauricio Amaro Atlanta United FC Aktiv 135 / 120 40% 3 17.12.2027 -
Ilay Feingold New England Revolution Aktiv 121 / 113 40% 1 17.12.2027 -
Tomás Jacob Atlanta United FC Aktiv 113 / 128 40% 5 16.12.2027 -
Lucas Boyé Alavés Aktiv 144 / 148 40% 1 16.12.2027 -
Fiete Arp OB Aktiv 140 / 125 40% 1 16.12.2027 -
Cristian Graciano Junior Aktiv 118 / 121 40% 1 16.12.2027 -
Arthur Santos Aktiv 137 / 135 40% 1 15.12.2027 -
Matheuzinho Corinthians Aktiv 133 / 134 40% 1 15.12.2027 -
Gustavo Martins Grêmio Aktiv 127 / 129 40% 1 15.12.2027 -
Melvin Bard OGC Nice Aktiv 152 / 146 40% 1 14.12.2027 -
Bryan Ramírez FC Cincinnati Aktiv 140 / 128 40% 1 14.12.2027 -
Ferran Jutglà Celta Aktiv 147 / 137 40% 1 13.12.2027 -
Christian Kouamé Monterrey Aktiv 144 / 132 40% 1 13.12.2027 -
Tammy Abraham Aston Villa Aktiv 139 / 147 40% 1 11.12.2027 -
Adam Wharton Crystal Palace Aktiv 165 / 162 40% 2 10.12.2027 -
Samuel Velásquez Atletico Nacional Aktiv 130 / 122 40% 6 10.12.2027 -
Hayato Tanaka Kashiwa Reysol Aktiv 115 / 115 40% 1 10.12.2027 -
Léo Ortiz Flamengo Aktiv 140 / 138 40% 1 09.12.2027 -
Tokuma Suzuki Gamba Osaka Aktiv 129 / 134 40% 1 08.12.2027 -
Sergio Reguilón Inter Miami CF Aktiv 135 / 140 40% 1 08.12.2027 -
Vitinho Botafogo Aktiv 140 / 136 40% 1 08.12.2027 -
Richarlison Brentford Aktiv 140 / 139 40% 1 07.12.2027 -
Ignacio Perruzzi San Lorenzo Aktiv 121 / 127 40% 3 06.12.2027 -
Axel Frugone Defensor Sporting Aktiv 117 / 119 40% 3 06.12.2027 -
Lucas Monzón Alvarado Aktiv 113 / 108 40% 2 06.12.2027 -
Elías Báez Atlanta United FC Aktiv 121 / 121 40% 4 04.12.2027 -
Daniel Herrera San Lorenzo Aktiv 125 / 119 40% 2 04.12.2027 -
Tomás Porra Barracas Central Aktiv 115 / 121 40% 3 03.12.2027 -
Mbekezeli Mbokazi Chicago Fire Aktiv 125 / 120 40% 2 01.12.2027 -
Igor Jesus Los Angeles Football Club Aktiv 131 / 122 40% 5 01.12.2027 -
Maik Atlético Mineiro Aktiv 121 / 125 40% 2 01.12.2027 -
Philippe Ndinga Philadelphia Union Aktiv 118 / 114 40% 1 26.11.2027 -
Sondre Auklend Bodo/Glimt Aktiv 131 / 125 40% 2 23.11.2027 -
Ivar Jenner Dewa United Aktiv 109 / 115 40% 1 23.11.2027 -
Ralph Orquin Seattle Sounders Aktiv 125 / 133 40% 1 21.11.2027 -
Mathías de Ritis San Lorenzo Aktiv 119 / 117 40% 1 21.11.2027 -
Tomás Silva Platense Aktiv 127 / 132 40% 1 18.11.2027 -
Samuel Lucero Defensa y Justicia Aktiv 121 / 123 40% 1 16.11.2027 -
Nicolás Romero Minnesota United FC Aktiv 138 / 139 40% 3 14.11.2027 -
Samuel Gidi FC Cincinnati Aktiv 120 / 121 40% 1 14.11.2027 -
César Pérez Defensa y Justicia Aktiv 131 / 125 40% 1 08.11.2027 -
Noah Persson Hammarby Aktiv 127 / 116 40% 1 01.11.2027 -
Nectar Triantis Minnesota United FC Aktiv 128 / 123 40% 3 20.10.2027 -
Yuto Ozeki Yokohama F. Marinos Aktiv 130 / 122 40% 3 19.10.2027 -
Jalen Neal CF Montreal Aktiv 130 / 117 40% 2 18.10.2027 -
Ian Garguez Palestino Aktiv 106 / 113 40% 1 15.10.2027 -
José Mercado Union Magdalena Aktiv 109 / 106 40% 1 13.10.2027 -
Juan José Arias Real Salt Lake Aktiv 126 / 121 40% 1 11.10.2027 -
Fernando Álvarez Deportivo Cali Aktiv 121 / 112 40% 2 10.10.2027 -
Zafarmurod Abdurahmatov Nasaf Aktiv 117 / 112 40% 2 10.10.2027 -
Lucas Agazzi Defensor Sporting Aktiv 128 / 129 40% 2 04.10.2027 -
Tomás Ferreyra Defensores Unidos Aktiv 106 / 115 40% 2 23.09.2027 -
David Sotelo Persib Aktiv 101 / 101 40% 1 23.09.2027 -
Sheyko Studer Independiente Rivadavia Aktiv 128 / 130 40% 1 21.09.2027 -
Morrison Agyemang Charlotte Football Club Aktiv 127 / 129 40% 1 18.09.2027 -
Gabriel Díaz Patronato Aktiv 108 / 116 40% 1 15.09.2027 -
Joel Poiso Penarol Aktiv 107 / 112 40% 1 11.09.2027 -
Édier Ocampo Vancouver Whitecaps Aktiv 120 / 112 40% 1 07.09.2027 -
Callum Brittain Middlesbrough Aktiv 136 / 138 40% 1 21.07.2027 -
David Turnbull Cardiff City Aktiv 120 / 117 40% 1 21.07.2027 -
Hayden Carter Blackburn Rovers Aktiv 126 / 122 40% 2 20.07.2027 -
Alfie Gilchrist West Bromwich Albion Aktiv 138 / 123 40% 1 20.07.2027 -
Ilario Monterisi Frosinone Aktiv 125 / 138 40% 3 18.07.2027 -
André Wolverhampton Aktiv 144 / 152 40% 2 18.07.2027 -
Teden Mengi Luton Town Aktiv 120 / 127 40% 4 18.07.2027 -
Christos Mouzakitis Hull City Aktiv 140 / 138 40% 7 17.07.2027 -
Ernie Weaver AFC Wimbledon Aktiv 120 / 112 40% 2 17.07.2027 -
Jack Currie Oxford United Aktiv 125 / 122 40% 2 16.07.2027 -
Brian De Keersmaecker Oxford United Aktiv 129 / 132 40% 4 16.07.2027 -
Aaron Morley Wycombe Wanderers Aktiv 124 / 119 40% 2 16.07.2027 -
Callum Doyle Wrexham Aktiv 129 / 144 40% 3 14.07.2027 -
Luke McNally Bristol City Aktiv 135 / 140 40% 4 14.07.2027 -
Filippo Ranocchia Palermo Aktiv 125 / 140 40% 3 14.07.2027 -
Kristoffer Lund Birmingham Aktiv 123 / 137 40% 6 13.07.2027 -
Jacob Greaves Ipswich Town Aktiv 145 / 136 40% 1 13.07.2027 -
Darlin Yongwa Norwich City Aktiv 129 / 131 40% 1 13.07.2027 -
Aidan Morris Middlesbrough Aktiv 130 / 136 40% 3 11.07.2027 -
Joel Bagan Cardiff City Aktiv 114 / 119 40% 1 11.07.2027 -
Matvey Kislyak CSKA Moscow Aktiv 130 / 143 40% 2 10.07.2027 -
Lucas Høgsberg RC Strasbourg Aktiv 143 / 142 40% 1 10.07.2027 -
Alfie Doughty Millwall Aktiv 125 / 127 40% 3 09.07.2027 -
Nicolas Madsen Queens Park Rangers Aktiv 140 / 126 40% 3 08.07.2027 -
Edoardo Bove Watford Aktiv 138 / 138 40% 4 08.07.2027 -
James Morris Leyton Orient Aktiv 114 / 124 40% 1 08.07.2027 -
Zaïd BafdilI Sporting CP Aktiv 88 / 102 40% 2 05.07.2027 -
Juan Mosquera Sheffield Wednesday Aktiv 130 / 121 40% 4 04.07.2027 -
Toby Collyer West Bromwich Albion Aktiv 126 / 138 40% 3 04.07.2027 -
Zak Swanson Bradford City Aktiv 120 / 120 40% 3 03.07.2027 -
Di'Shon Bernard Sheffield Wednesday Aktiv 119 / 124 40% 2 03.07.2027 -
Justin Devenny Stoke City Aktiv 129 / 123 40% 1 03.07.2027 -
Oliver Skipp Leicester City Aktiv 131 / 128 40% 3 02.07.2027 -
Max Bird Birmingham Aktiv 139 / 125 40% 3 02.07.2027 -
Jacques Ekomié Wrexham Aktiv 137 / 139 40% 3 30.06.2027 -
Adam Bakoune Ospitaletto Aktiv 91 / 111 40% 3 30.06.2027 -
Pape Diong Westerlo Aktiv 113 / 116 40% 2 30.06.2027 -
Finley McAllister Grimsby Town Aktiv 87 / 89 40% 2 30.06.2027 -
Nobel Mendy Hull City Aktiv 143 / 133 40% 3 28.06.2027 -
Nuno Tavares Lazio Aktiv 157 / 142 40% 3 28.06.2027 -
Konta Ismaily Aktiv 86 / 100 40% 2 28.06.2027 -
Quinten Timber Crystal Palace Aktiv 153 / 155 40% 2 28.06.2027 -
Ricky Atletico Venezuela Aktiv 101 / 102 40% 1 28.06.2027 -
Juan Giménez Celta Aktiv 126 / 120 40% 2 27.06.2027 -
Daniel Dennis Ikorodu City Aktiv 93 / 104 40% 1 27.06.2027 -
Kazunari Kita Real Sociedad Aktiv 104 / 98 40% 2 26.06.2027 -
Brodie Spencer Oxford United Aktiv 122 / 121 40% 2 24.06.2027 -
Liam Thompson Mansfield Town Aktiv 115 / 119 40% 1 24.06.2027 -
Will Fish Cardiff City Aktiv 132 / 132 40% 1 23.06.2027 -
Caspar Jander Southampton Aktiv 139 / 133 40% 1 23.06.2027 -
Ethan Galbraith Swansea City Aktiv 127 / 141 40% 4 22.06.2027 -
Bobby Thomas Coventry City Aktiv 128 / 135 40% 1 21.06.2027 -
Ronnie Edwards Queens Park Rangers Aktiv 126 / 130 40% 2 20.06.2027 -
Alejandro Balde Barcelona Aktiv 165 / 159 40% 1 20.06.2027 -
Nathan Collins Brentford Aktiv 140 / 141 40% 2 18.06.2027 -
Sidny Lopes Cabral Trabzonspor Aktiv 127 / 128 40% 1 18.06.2027 -
Joel McGregor Swindon Town Aktiv 102 / 101 40% 2 16.06.2027 -
Bosun Lawal Stoke City Aktiv 121 / 124 40% 3 15.06.2027 -
Dennis Cirkin Queens Park Rangers Aktiv 134 / 131 40% 2 13.06.2027 -
Habib Diarra Sunderland Aktiv 145 / 136 40% 2 10.06.2027 -
Leif Davis Ipswich Town Aktiv 142 / 136 40% 5 09.06.2027 -
Femi Seriki Sheffield United Aktiv 137 / 131 40% 1 09.06.2027 -
Sondre Langås Derby County Aktiv 126 / 133 40% 1 09.06.2027 -
Jack Hinshelwood Brighton Aktiv 146 / 141 40% 1 08.06.2027 -
Florentino Luís Ipswich Town Aktiv 146 / 138 40% 5 06.06.2027 -
Shea Charles Southampton Aktiv 135 / 134 40% 4 05.06.2027 -
Caleb Yirenkyi Coventry City Aktiv 128 / 136 40% 3 05.06.2027 -
Leonardo Mendicino Bari Aktiv 117 / 122 40% 1 05.06.2027 -
Michael Kayode Brentford Aktiv 145 / 144 40% 1 05.06.2027 -
Aaron Hickey Brentford Aktiv 139 / 138 40% 2 02.06.2027 -
Vasilije Novičić IMT Aktiv 94 / 109 40% 1 02.06.2027 -
Keagan Tau Ajax Cape Town Aktiv 101 / 93 40% 1 02.06.2027 -
Matías Gómez Granada Aktiv 122 / 128 40% 2 01.06.2027 -
Josh King Chelsea Aktiv 143 / 139 40% 2 01.06.2027 -
Daniel Vernattus Metalist Aktiv 97 / 98 40% 1 29.05.2027 -
Darryl Bakola Padova Aktiv 108 / 109 40% 1 24.05.2027 -
Lewis Bate Stockport County Aktiv 114 / 124 40% 1 22.05.2027 -
Lewis Ferguson Bologna Aktiv 149 / 136 40% 4 21.05.2027 -
Welington Southampton Aktiv 131 / 122 40% 4 20.05.2027 -
Adam Randell Bristol City Aktiv 134 / 125 40% 3 18.05.2027 -
David Valencia Alianza Petrolera Aktiv 128 / 136 40% 1 18.05.2027 -
Milan van Ewijk Mansfield Town Aktiv 124 / 124 40% 1 16.05.2027 -
Harry Clarke Preston Aktiv 123 / 130 40% 1 14.05.2027 -
Lucas Da Cunha Como Aktiv 137 / 146 40% 3 12.05.2027 -
Kayne Ramsay Charlton Athletic Aktiv 122 / 127 40% 1 12.05.2027 -
Daniel Tonoli Modena Aktiv 132 / 123 40% 1 12.05.2027 -
Ezra Mayers West Ham United Aktiv 126 / 120 40% 1 11.05.2027 -
Jan Bürger Gillingham Aktiv 111 / 111 40% 2 08.05.2027 -
Adrián Bernabé Parma Aktiv 137 / 142 40% 1 08.05.2027 -
Harrison Burrows Sheffield United Aktiv 125 / 134 40% 2 05.05.2027 -
Jordan Zemura Udinese Aktiv 134 / 126 40% 1 05.05.2027 -
Tariq Lamptey Queens Park Rangers Aktiv 143 / 125 40% 2 29.04.2027 -
Noah Sadiki Sunderland Aktiv 150 / 139 40% 3 26.04.2027 -
Mamadou Sangaré Brentford Aktiv 143 / 142 40% 1 24.04.2027 -
Andrea Carboni Monza Aktiv 134 / 131 40% 1 23.04.2027 -
Tommaso Pobega Bologna Aktiv 146 / 145 40% 1 19.04.2027 -
Nadir Zortea Bologna Aktiv 136 / 135 40% 1 19.04.2027 -
Adilson Malanda Middlesbrough Aktiv 129 / 132 40% 1 18.04.2027 -
Gabriel Gudmundsson Leeds United Aktiv 142 / 142 40% 1 17.04.2027 -
Ethan Pye Stockport County Aktiv 114 / 111 40% 2 16.04.2027 -
Idris El Mizouni Leyton Orient Aktiv 107 / 110 40% 1 14.04.2027 -
Latrell Aken Groningen Aktiv 105 / 119 40% 1 13.04.2027 -
Cheveyo Tsawa Club Brugge Aktiv 122 / 121 40% 1 12.04.2027 -
Derry Murkin Derby County Aktiv 126 / 136 40% 1 10.04.2027 -
Martim Cunha Porto Aktiv 100 / 101 40% 1 08.04.2027 -
Tiago Djaló Besiktas Aktiv 134 / 130 40% 1 07.04.2027 -
Christian Krasnodar Aktiv 127 / 128 40% 1 05.04.2027 -
Pelle Mattsson Norwich City Aktiv 115 / 118 40% 2 20.03.2027 -
Mandla Erasmus SuperSport United Aktiv 126 / 114 40% 1 20.03.2027 -
Ethan Ampadu Leeds United Aktiv 154 / 137 40% 1 20.03.2027 -
Marlon Gomes Shakhtar Aktiv 126 / 138 40% 1 17.03.2027 -
Jordan Beyer Burnley Aktiv 125 / 138 40% 1 30.12.2026 -
El Hadji Malick Diouf Brentford Aktiv 131 / 144 40% 1 26.12.2026 -
Merchas Doski Viktoria Plzen Aktiv 115 / 127 40% 1 24.12.2026 -
Karel Spáčil Viktoria Plzen Aktiv 136 / 138 40% 1 16.12.2026 -
Lukáš Červ Viktoria Plzen Aktiv 133 / 141 40% 1 07.12.2026 -
Josh Edwards Charlton Athletic Aktiv 109 / 110 40% 1 07.12.2026 -